sensor_id;sensor_type;location;lat;lon;timestamp;P1;durP1;ratioP1;P2;durP2;ratioP2
57191;SDS011;43052;52.588;13.396;2023-04-08T00:00:01;25.33;;;14.80;;
57191;SDS011;43052;52.588;13.396;2023-04-08T00:02:26;25.92;;;15.25;;
57191;SDS011;43052;52.588;13.396;2023-04-08T00:04:51;26.73;;;15.27;;
57191;SDS011;43052;52.588;13.396;2023-04-08T00:07:16;26.13;;;15.07;;
57191;SDS011;43052;52.588;13.396;2023-04-08T00:09:42;25.58;;;15.73;;
57191;SDS011;43052;52.588;13.396;2023-04-08T00:12:07;25.88;;;15.00;;
57191;SDS011;43052;52.588;13.396;2023-04-08T00:14:32;28.25;;;15.95;;
57191;SDS011;43052;52.588;13.396;2023-04-08T00:16:57;29.48;;;16.67;;
57191;SDS011;43052;52.588;13.396;2023-04-08T00:19:23;28.08;;;15.57;;
57191;SDS011;43052;52.588;13.396;2023-04-08T00:21:49;31.23;;;16.00;;
57191;SDS011;43052;52.588;13.396;2023-04-08T00:24:15;30.52;;;16.83;;
57191;SDS011;43052;52.588;13.396;2023-04-08T00:26:40;31.98;;;18.05;;
57191;SDS011;43052;52.588;13.396;2023-04-08T00:29:05;30.70;;;17.00;;
57191;SDS011;43052;52.588;13.396;2023-04-08T00:31:31;26.83;;;16.77;;
57191;SDS011;43052;52.588;13.396;2023-04-08T00:33:56;30.17;;;16.70;;
57191;SDS011;43052;52.588;13.396;2023-04-08T00:36:21;31.23;;;16.55;;
57191;SDS011;43052;52.588;13.396;2023-04-08T00:38:47;29.23;;;17.17;;
57191;SDS011;43052;52.588;13.396;2023-04-08T00:41:12;31.77;;;17.83;;
57191;SDS011;43052;52.588;13.396;2023-04-08T00:43:38;32.45;;;17.20;;
57191;SDS011;43052;52.588;13.396;2023-04-08T00:46:03;33.08;;;17.75;;
57191;SDS011;43052;52.588;13.396;2023-04-08T00:48:29;34.85;;;17.88;;
57191;SDS011;43052;52.588;13.396;2023-04-08T00:50:56;27.08;;;16.70;;
57191;SDS011;43052;52.588;13.396;2023-04-08T00:53:21;33.50;;;17.75;;
57191;SDS011;43052;52.588;13.396;2023-04-08T00:55:47;36.58;;;18.90;;
57191;SDS011;43052;52.588;13.396;2023-04-08T00:58:12;30.30;;;17.33;;
57191;SDS011;43052;52.588;13.396;2023-04-08T01:00:39;34.28;;;18.42;;
57191;SDS011;43052;52.588;13.396;2023-04-08T01:03:13;31.67;;;17.63;;
57191;SDS011;43052;52.588;13.396;2023-04-08T01:05:47;33.92;;;18.63;;
57191;SDS011;43052;52.588;13.396;2023-04-08T01:08:39;34.85;;;19.38;;
57191;SDS011;43052;52.588;13.396;2023-04-08T01:11:07;33.30;;;17.73;;
57191;SDS011;43052;52.588;13.396;2023-04-08T01:13:35;37.92;;;19.20;;
57191;SDS011;43052;52.588;13.396;2023-04-08T01:16:03;33.70;;;16.92;;
57191;SDS011;43052;52.588;13.396;2023-04-08T01:18:29;37.13;;;20.05;;
57191;SDS011;43052;52.588;13.396;2023-04-08T01:20:59;36.85;;;19.23;;
57191;SDS011;43052;52.588;13.396;2023-04-08T01:26:05;38.10;;;19.65;;
57191;SDS011;43052;52.588;13.396;2023-04-08T01:28:30;41.53;;;19.95;;
57191;SDS011;43052;52.588;13.396;2023-04-08T01:30:58;35.22;;;18.55;;
57191;SDS011;43052;52.588;13.396;2023-04-08T01:33:24;37.75;;;19.02;;
57191;SDS011;43052;52.588;13.396;2023-04-08T01:35:52;35.85;;;18.52;;
57191;SDS011;43052;52.588;13.396;2023-04-08T01:38:19;37.65;;;19.80;;
57191;SDS011;43052;52.588;13.396;2023-04-08T01:40:47;39.55;;;19.05;;
57191;SDS011;43052;52.588;13.396;2023-04-08T01:43:13;38.50;;;19.63;;
57191;SDS011;43052;52.588;13.396;2023-04-08T01:45:42;39.88;;;19.52;;
57191;SDS011;43052;52.588;13.396;2023-04-08T01:48:09;36.30;;;19.83;;
57191;SDS011;43052;52.588;13.396;2023-04-08T01:50:37;39.45;;;20.60;;
57191;SDS011;43052;52.588;13.396;2023-04-08T01:53:03;34.47;;;18.95;;
57191;SDS011;43052;52.588;13.396;2023-04-08T01:55:32;38.03;;;21.00;;
57191;SDS011;43052;52.588;13.396;2023-04-08T01:57:58;38.63;;;18.92;;
57191;SDS011;43052;52.588;13.396;2023-04-08T02:00:27;35.10;;;18.70;;
57191;SDS011;43052;52.588;13.396;2023-04-08T02:02:54;36.50;;;18.70;;
57191;SDS011;43052;52.588;13.396;2023-04-08T02:05:21;34.53;;;18.38;;
57191;SDS011;43052;52.588;13.396;2023-04-08T02:07:47;34.75;;;18.55;;
57191;SDS011;43052;52.588;13.396;2023-04-08T02:10:12;33.00;;;18.38;;
57191;SDS011;43052;52.588;13.396;2023-04-08T02:12:38;35.35;;;18.25;;
57191;SDS011;43052;52.588;13.396;2023-04-08T02:15:03;37.90;;;19.00;;
57191;SDS011;43052;52.588;13.396;2023-04-08T02:17:32;31.98;;;19.00;;
57191;SDS011;43052;52.588;13.396;2023-04-08T02:20:06;36.05;;;17.98;;
57191;SDS011;43052;52.588;13.396;2023-04-08T02:22:36;34.35;;;17.40;;
57191;SDS011;43052;52.588;13.396;2023-04-08T02:25:07;35.20;;;18.25;;
57191;SDS011;43052;52.588;13.396;2023-04-08T02:27:36;31.20;;;16.77;;
57191;SDS011;43052;52.588;13.396;2023-04-08T02:30:04;34.67;;;19.15;;
57191;SDS011;43052;52.588;13.396;2023-04-08T02:32:34;40.13;;;18.70;;
57191;SDS011;43052;52.588;13.396;2023-04-08T02:35:00;37.35;;;20.17;;
57191;SDS011;43052;52.588;13.396;2023-04-08T02:37:28;31.02;;;17.30;;
57191;SDS011;43052;52.588;13.396;2023-04-08T02:39:54;39.95;;;19.33;;
57191;SDS011;43052;52.588;13.396;2023-04-08T02:42:20;37.88;;;17.98;;
57191;SDS011;43052;52.588;13.396;2023-04-08T02:44:46;34.55;;;16.92;;
57191;SDS011;43052;52.588;13.396;2023-04-08T02:47:11;37.25;;;19.33;;
57191;SDS011;43052;52.588;13.396;2023-04-08T02:49:37;38.42;;;19.85;;
57191;SDS011;43052;52.588;13.396;2023-04-08T02:52:02;36.85;;;17.98;;
57191;SDS011;43052;52.588;13.396;2023-04-08T02:54:27;35.97;;;18.17;;
57191;SDS011;43052;52.588;13.396;2023-04-08T02:56:52;35.80;;;18.50;;
57191;SDS011;43052;52.588;13.396;2023-04-08T02:59:18;33.97;;;17.77;;
57191;SDS011;43052;52.588;13.396;2023-04-08T03:01:43;38.15;;;18.80;;
57191;SDS011;43052;52.588;13.396;2023-04-08T03:04:08;35.97;;;19.35;;
57191;SDS011;43052;52.588;13.396;2023-04-08T03:06:33;27.80;;;14.13;;
57191;SDS011;43052;52.588;13.396;2023-04-08T03:08:59;34.78;;;17.20;;
57191;SDS011;43052;52.588;13.396;2023-04-08T03:11:24;37.80;;;18.98;;
57191;SDS011;43052;52.588;13.396;2023-04-08T03:13:50;40.10;;;18.83;;
57191;SDS011;43052;52.588;13.396;2023-04-08T03:16:15;41.75;;;21.05;;
57191;SDS011;43052;52.588;13.396;2023-04-08T03:18:40;36.30;;;17.77;;
57191;SDS011;43052;52.588;13.396;2023-04-08T03:21:05;28.80;;;15.05;;
57191;SDS011;43052;52.588;13.396;2023-04-08T03:23:31;37.67;;;18.60;;
57191;SDS011;43052;52.588;13.396;2023-04-08T03:25:57;37.05;;;18.70;;
57191;SDS011;43052;52.588;13.396;2023-04-08T03:28:22;36.95;;;18.83;;
57191;SDS011;43052;52.588;13.396;2023-04-08T03:30:48;43.00;;;20.38;;
57191;SDS011;43052;52.588;13.396;2023-04-08T03:33:13;43.20;;;20.42;;
57191;SDS011;43052;52.588;13.396;2023-04-08T03:35:38;39.92;;;19.08;;
57191;SDS011;43052;52.588;13.396;2023-04-08T03:38:04;41.58;;;19.33;;
57191;SDS011;43052;52.588;13.396;2023-04-08T03:40:29;42.60;;;19.83;;
57191;SDS011;43052;52.588;13.396;2023-04-08T03:42:55;42.85;;;19.88;;
57191;SDS011;43052;52.588;13.396;2023-04-08T03:45:20;38.78;;;18.80;;
57191;SDS011;43052;52.588;13.396;2023-04-08T03:47:45;40.53;;;20.08;;
57191;SDS011;43052;52.588;13.396;2023-04-08T03:50:11;40.20;;;20.13;;
57191;SDS011;43052;52.588;13.396;2023-04-08T03:52:44;39.47;;;19.13;;
57191;SDS011;43052;52.588;13.396;2023-04-08T03:55:09;46.80;;;20.95;;
57191;SDS011;43052;52.588;13.396;2023-04-08T03:57:35;37.38;;;17.27;;
57191;SDS011;43052;52.588;13.396;2023-04-08T04:00:00;40.92;;;19.80;;
57191;SDS011;43052;52.588;13.396;2023-04-08T04:02:25;39.40;;;18.20;;
57191;SDS011;43052;52.588;13.396;2023-04-08T04:04:51;40.13;;;20.20;;
57191;SDS011;43052;52.588;13.396;2023-04-08T04:07:16;36.85;;;19.33;;
57191;SDS011;43052;52.588;13.396;2023-04-08T04:09:41;41.33;;;20.10;;
57191;SDS011;43052;52.588;13.396;2023-04-08T04:12:13;36.58;;;20.40;;
57191;SDS011;43052;52.588;13.396;2023-04-08T04:14:38;37.03;;;19.27;;
57191;SDS011;43052;52.588;13.396;2023-04-08T04:17:03;41.00;;;18.92;;
57191;SDS011;43052;52.588;13.396;2023-04-08T04:19:29;43.05;;;20.77;;
57191;SDS011;43052;52.588;13.396;2023-04-08T04:21:55;41.00;;;19.98;;
57191;SDS011;43052;52.588;13.396;2023-04-08T04:24:20;40.53;;;19.08;;
57191;SDS011;43052;52.588;13.396;2023-04-08T04:26:46;37.30;;;19.08;;
57191;SDS011;43052;52.588;13.396;2023-04-08T04:29:11;38.63;;;19.77;;
57191;SDS011;43052;52.588;13.396;2023-04-08T04:31:36;37.78;;;19.67;;
57191;SDS011;43052;52.588;13.396;2023-04-08T04:34:01;41.95;;;19.77;;
57191;SDS011;43052;52.588;13.396;2023-04-08T04:36:27;42.55;;;19.33;;
57191;SDS011;43052;52.588;13.396;2023-04-08T04:38:52;37.42;;;18.65;;
57191;SDS011;43052;52.588;13.396;2023-04-08T04:41:17;38.80;;;19.42;;
57191;SDS011;43052;52.588;13.396;2023-04-08T04:43:42;38.00;;;17.15;;
57191;SDS011;43052;52.588;13.396;2023-04-08T04:46:08;35.97;;;18.83;;
57191;SDS011;43052;52.588;13.396;2023-04-08T04:48:34;41.20;;;20.92;;
57191;SDS011;43052;52.588;13.396;2023-04-08T04:50:59;40.38;;;20.33;;
57191;SDS011;43052;52.588;13.396;2023-04-08T04:53:26;45.90;;;22.17;;
57191;SDS011;43052;52.588;13.396;2023-04-08T04:55:52;38.88;;;19.73;;
57191;SDS011;43052;52.588;13.396;2023-04-08T04:58:17;39.55;;;20.17;;
57191;SDS011;43052;52.588;13.396;2023-04-08T05:00:43;38.08;;;18.90;;
57191;SDS011;43052;52.588;13.396;2023-04-08T05:03:08;34.30;;;17.88;;
57191;SDS011;43052;52.588;13.396;2023-04-08T05:05:33;40.65;;;21.23;;
57191;SDS011;43052;52.588;13.396;2023-04-08T05:07:59;41.88;;;20.38;;
57191;SDS011;43052;52.588;13.396;2023-04-08T05:10:25;37.42;;;20.25;;
57191;SDS011;43052;52.588;13.396;2023-04-08T05:12:50;39.65;;;19.10;;
57191;SDS011;43052;52.588;13.396;2023-04-08T05:15:15;41.55;;;20.65;;
57191;SDS011;43052;52.588;13.396;2023-04-08T05:17:41;43.10;;;22.05;;
57191;SDS011;43052;52.588;13.396;2023-04-08T05:20:06;46.45;;;20.88;;
57191;SDS011;43052;52.588;13.396;2023-04-08T05:22:31;40.70;;;22.02;;
57191;SDS011;43052;52.588;13.396;2023-04-08T05:24:57;42.65;;;19.95;;
57191;SDS011;43052;52.588;13.396;2023-04-08T05:27:22;46.80;;;22.92;;
57191;SDS011;43052;52.588;13.396;2023-04-08T05:29:47;47.72;;;23.05;;
57191;SDS011;43052;52.588;13.396;2023-04-08T05:32:13;44.85;;;22.67;;
57191;SDS011;43052;52.588;13.396;2023-04-08T05:34:38;47.80;;;23.23;;
57191;SDS011;43052;52.588;13.396;2023-04-08T05:37:03;44.85;;;23.38;;
57191;SDS011;43052;52.588;13.396;2023-04-08T05:39:28;43.17;;;21.08;;
57191;SDS011;43052;52.588;13.396;2023-04-08T05:41:54;43.40;;;21.75;;
57191;SDS011;43052;52.588;13.396;2023-04-08T05:44:19;46.38;;;23.35;;
57191;SDS011;43052;52.588;13.396;2023-04-08T05:46:44;48.58;;;22.67;;
57191;SDS011;43052;52.588;13.396;2023-04-08T05:49:10;41.88;;;22.38;;
57191;SDS011;43052;52.588;13.396;2023-04-08T05:51:36;44.95;;;22.33;;
57191;SDS011;43052;52.588;13.396;2023-04-08T05:54:01;38.42;;;18.48;;
57191;SDS011;43052;52.588;13.396;2023-04-08T05:56:27;43.30;;;22.42;;
57191;SDS011;43052;52.588;13.396;2023-04-08T05:58:52;42.30;;;21.85;;
57191;SDS011;43052;52.588;13.396;2023-04-08T06:01:17;41.70;;;20.58;;
57191;SDS011;43052;52.588;13.396;2023-04-08T06:03:42;43.35;;;23.63;;
57191;SDS011;43052;52.588;13.396;2023-04-08T06:06:08;48.25;;;22.83;;
57191;SDS011;43052;52.588;13.396;2023-04-08T06:08:35;41.70;;;21.60;;
57191;SDS011;43052;52.588;13.396;2023-04-08T06:11:00;44.50;;;22.60;;
57191;SDS011;43052;52.588;13.396;2023-04-08T06:13:28;47.50;;;21.75;;
57191;SDS011;43052;52.588;13.396;2023-04-08T06:15:53;46.83;;;23.25;;
57191;SDS011;43052;52.588;13.396;2023-04-08T06:18:18;46.80;;;22.10;;
57191;SDS011;43052;52.588;13.396;2023-04-08T06:20:43;50.42;;;24.38;;
57191;SDS011;43052;52.588;13.396;2023-04-08T06:23:10;42.47;;;22.17;;
57191;SDS011;43052;52.588;13.396;2023-04-08T06:25:35;45.25;;;21.95;;
57191;SDS011;43052;52.588;13.396;2023-04-08T06:28:01;39.75;;;21.48;;
57191;SDS011;43052;52.588;13.396;2023-04-08T06:30:26;45.50;;;22.90;;
57191;SDS011;43052;52.588;13.396;2023-04-08T06:32:51;46.75;;;23.10;;
57191;SDS011;43052;52.588;13.396;2023-04-08T06:35:17;43.33;;;21.63;;
57191;SDS011;43052;52.588;13.396;2023-04-08T06:37:42;44.28;;;21.80;;
57191;SDS011;43052;52.588;13.396;2023-04-08T06:40:08;43.20;;;22.13;;
57191;SDS011;43052;52.588;13.396;2023-04-08T06:42:34;43.05;;;21.77;;
57191;SDS011;43052;52.588;13.396;2023-04-08T06:44:59;41.83;;;21.08;;
57191;SDS011;43052;52.588;13.396;2023-04-08T06:47:25;45.85;;;22.33;;
57191;SDS011;43052;52.588;13.396;2023-04-08T06:49:50;42.33;;;22.73;;
57191;SDS011;43052;52.588;13.396;2023-04-08T06:52:15;41.55;;;23.30;;
57191;SDS011;43052;52.588;13.396;2023-04-08T06:54:41;43.20;;;22.42;;
57191;SDS011;43052;52.588;13.396;2023-04-08T06:57:06;46.22;;;22.20;;
57191;SDS011;43052;52.588;13.396;2023-04-08T06:59:31;44.15;;;22.55;;
57191;SDS011;43052;52.588;13.396;2023-04-08T07:01:56;42.22;;;21.83;;
57191;SDS011;43052;52.588;13.396;2023-04-08T07:04:22;39.33;;;20.88;;
57191;SDS011;43052;52.588;13.396;2023-04-08T07:06:47;40.97;;;21.42;;
57191;SDS011;43052;52.588;13.396;2023-04-08T07:09:12;38.75;;;20.55;;
57191;SDS011;43052;52.588;13.396;2023-04-08T07:11:37;42.35;;;20.85;;
57191;SDS011;43052;52.588;13.396;2023-04-08T07:14:03;38.05;;;18.55;;
57191;SDS011;43052;52.588;13.396;2023-04-08T07:16:28;41.08;;;21.38;;
57191;SDS011;43052;52.588;13.396;2023-04-08T07:18:53;33.78;;;17.02;;
57191;SDS011;43052;52.588;13.396;2023-04-08T07:21:18;41.58;;;19.75;;
57191;SDS011;43052;52.588;13.396;2023-04-08T07:23:44;41.45;;;18.67;;
57191;SDS011;43052;52.588;13.396;2023-04-08T07:26:09;42.03;;;20.58;;
57191;SDS011;43052;52.588;13.396;2023-04-08T07:28:34;38.78;;;19.33;;
57191;SDS011;43052;52.588;13.396;2023-04-08T07:31:09;40.55;;;22.08;;
57191;SDS011;43052;52.588;13.396;2023-04-08T07:33:36;38.35;;;20.63;;
57191;SDS011;43052;52.588;13.396;2023-04-08T07:36:01;33.05;;;17.08;;
57191;SDS011;43052;52.588;13.396;2023-04-08T07:38:26;39.20;;;18.55;;
57191;SDS011;43052;52.588;13.396;2023-04-08T07:40:51;37.40;;;19.10;;
57191;SDS011;43052;52.588;13.396;2023-04-08T07:43:17;39.63;;;19.30;;
57191;SDS011;43052;52.588;13.396;2023-04-08T07:45:42;37.50;;;20.30;;
57191;SDS011;43052;52.588;13.396;2023-04-08T07:48:07;35.78;;;18.73;;
57191;SDS011;43052;52.588;13.396;2023-04-08T07:50:34;35.15;;;18.88;;
57191;SDS011;43052;52.588;13.396;2023-04-08T07:53:00;36.90;;;19.83;;
57191;SDS011;43052;52.588;13.396;2023-04-08T07:55:25;39.20;;;19.70;;
57191;SDS011;43052;52.588;13.396;2023-04-08T07:57:51;38.20;;;20.45;;
57191;SDS011;43052;52.588;13.396;2023-04-08T08:00:16;32.95;;;18.38;;
57191;SDS011;43052;52.588;13.396;2023-04-08T08:02:45;34.40;;;19.25;;
57191;SDS011;43052;52.588;13.396;2023-04-08T08:05:12;33.83;;;17.98;;
57191;SDS011;43052;52.588;13.396;2023-04-08T08:07:37;38.30;;;18.02;;
57191;SDS011;43052;52.588;13.396;2023-04-08T08:10:03;34.08;;;17.90;;
57191;SDS011;43052;52.588;13.396;2023-04-08T08:12:28;38.17;;;19.73;;
57191;SDS011;43052;52.588;13.396;2023-04-08T08:14:54;31.73;;;18.35;;
57191;SDS011;43052;52.588;13.396;2023-04-08T08:17:22;36.65;;;20.38;;
57191;SDS011;43052;52.588;13.396;2023-04-08T08:19:48;35.67;;;19.00;;
57191;SDS011;43052;52.588;13.396;2023-04-08T08:22:13;31.77;;;15.93;;
57191;SDS011;43052;52.588;13.396;2023-04-08T08:24:39;35.50;;;18.92;;
57191;SDS011;43052;52.588;13.396;2023-04-08T08:27:04;36.45;;;19.13;;
57191;SDS011;43052;52.588;13.396;2023-04-08T08:29:30;31.58;;;14.95;;
57191;SDS011;43052;52.588;13.396;2023-04-08T08:31:55;34.75;;;18.10;;
57191;SDS011;43052;52.588;13.396;2023-04-08T08:34:21;33.20;;;18.70;;
57191;SDS011;43052;52.588;13.396;2023-04-08T08:36:47;35.17;;;18.05;;
57191;SDS011;43052;52.588;13.396;2023-04-08T08:39:12;33.05;;;19.98;;
57191;SDS011;43052;52.588;13.396;2023-04-08T08:41:37;29.60;;;15.02;;
57191;SDS011;43052;52.588;13.396;2023-04-08T08:44:06;34.47;;;18.88;;
57191;SDS011;43052;52.588;13.396;2023-04-08T08:46:32;32.80;;;19.13;;
57191;SDS011;43052;52.588;13.396;2023-04-08T08:48:58;34.85;;;19.20;;
57191;SDS011;43052;52.588;13.396;2023-04-08T08:51:23;32.38;;;18.58;;
57191;SDS011;43052;52.588;13.396;2023-04-08T08:53:50;36.95;;;20.83;;
57191;SDS011;43052;52.588;13.396;2023-04-08T08:56:15;39.85;;;20.70;;
57191;SDS011;43052;52.588;13.396;2023-04-08T08:58:40;33.47;;;16.48;;
57191;SDS011;43052;52.588;13.396;2023-04-08T09:04:11;35.38;;;18.88;;
57191;SDS011;43052;52.588;13.396;2023-04-08T09:06:47;36.42;;;19.73;;
57191;SDS011;43052;52.588;13.396;2023-04-08T09:09:15;35.08;;;19.05;;
57191;SDS011;43052;52.588;13.396;2023-04-08T09:11:42;38.90;;;20.92;;
57191;SDS011;43052;52.588;13.396;2023-04-08T09:16:43;32.00;;;17.33;;
57191;SDS011;43052;52.588;13.396;2023-04-08T09:19:09;29.63;;;17.70;;
57191;SDS011;43052;52.588;13.396;2023-04-08T09:21:35;30.20;;;17.35;;
57191;SDS011;43052;52.588;13.396;2023-04-08T09:24:01;33.42;;;18.08;;
57191;SDS011;43052;52.588;13.396;2023-04-08T09:26:26;33.70;;;18.23;;
57191;SDS011;43052;52.588;13.396;2023-04-08T09:29:05;31.92;;;19.45;;
57191;SDS011;43052;52.588;13.396;2023-04-08T09:31:32;32.58;;;18.25;;
57191;SDS011;43052;52.588;13.396;2023-04-08T09:34:08;36.63;;;19.58;;
57191;SDS011;43052;52.588;13.396;2023-04-08T09:36:41;33.42;;;17.95;;
57191;SDS011;43052;52.588;13.396;2023-04-08T09:39:06;36.22;;;17.63;;
57191;SDS011;43052;52.588;13.396;2023-04-08T09:41:35;34.03;;;18.83;;
57191;SDS011;43052;52.588;13.396;2023-04-08T09:44:05;36.13;;;19.35;;
57191;SDS011;43052;52.588;13.396;2023-04-08T09:52:06;36.13;;;18.85;;
57191;SDS011;43052;52.588;13.396;2023-04-08T09:54:37;30.95;;;17.27;;
57191;SDS011;43052;52.588;13.396;2023-04-08T09:59:35;34.90;;;17.85;;
57191;SDS011;43052;52.588;13.396;2023-04-08T10:02:06;31.15;;;18.02;;
57191;SDS011;43052;52.588;13.396;2023-04-08T10:04:36;30.27;;;18.13;;
57191;SDS011;43052;52.588;13.396;2023-04-08T10:07:05;30.60;;;17.80;;
57191;SDS011;43052;52.588;13.396;2023-04-08T10:09:33;30.15;;;17.48;;
57191;SDS011;43052;52.588;13.396;2023-04-08T10:12:00;31.88;;;19.23;;
57191;SDS011;43052;52.588;13.396;2023-04-08T10:14:27;31.58;;;18.65;;
57191;SDS011;43052;52.588;13.396;2023-04-08T10:19:52;32.13;;;18.65;;
57191;SDS011;43052;52.588;13.396;2023-04-08T10:22:51;24.40;;;13.25;;
57191;SDS011;43052;52.588;13.396;2023-04-08T10:27:41;26.73;;;15.40;;
57191;SDS011;43052;52.588;13.396;2023-04-08T10:32:51;25.67;;;16.40;;
57191;SDS011;43052;52.588;13.396;2023-04-08T10:35:27;21.77;;;13.27;;
57191;SDS011;43052;52.588;13.396;2023-04-08T10:37:54;23.20;;;15.40;;
57191;SDS011;43052;52.588;13.396;2023-04-08T10:40:20;24.90;;;14.60;;
57191;SDS011;43052;52.588;13.396;2023-04-08T10:42:45;23.30;;;13.85;;
57191;SDS011;43052;52.588;13.396;2023-04-08T10:45:10;22.23;;;14.07;;
57191;SDS011;43052;52.588;13.396;2023-04-08T10:47:41;23.42;;;14.95;;
57191;SDS011;43052;52.588;13.396;2023-04-08T10:50:12;22.25;;;14.73;;
57191;SDS011;43052;52.588;13.396;2023-04-08T10:52:52;21.58;;;13.50;;
57191;SDS011;43052;52.588;13.396;2023-04-08T10:55:27;23.65;;;14.38;;
57191;SDS011;43052;52.588;13.396;2023-04-08T10:58:08;19.23;;;12.38;;
57191;SDS011;43052;52.588;13.396;2023-04-08T11:00:37;20.70;;;13.35;;
57191;SDS011;43052;52.588;13.396;2023-04-08T11:03:04;19.77;;;13.63;;
57191;SDS011;43052;52.588;13.396;2023-04-08T11:05:31;18.02;;;12.55;;
57191;SDS011;43052;52.588;13.396;2023-04-08T11:07:58;19.10;;;13.07;;
57191;SDS011;43052;52.588;13.396;2023-04-08T11:10:23;20.23;;;13.80;;
57191;SDS011;43052;52.588;13.396;2023-04-08T11:12:50;21.40;;;14.30;;
57191;SDS011;43052;52.588;13.396;2023-04-08T11:15:15;17.85;;;11.80;;
57191;SDS011;43052;52.588;13.396;2023-04-08T11:17:41;20.20;;;13.45;;
57191;SDS011;43052;52.588;13.396;2023-04-08T11:20:07;19.77;;;12.40;;
57191;SDS011;43052;52.588;13.396;2023-04-08T11:22:33;23.85;;;12.50;;
57191;SDS011;43052;52.588;13.396;2023-04-08T11:24:59;21.52;;;12.70;;
57191;SDS011;43052;52.588;13.396;2023-04-08T11:27:25;22.70;;;14.00;;
57191;SDS011;43052;52.588;13.396;2023-04-08T11:29:52;23.38;;;15.10;;
57191;SDS011;43052;52.588;13.396;2023-04-08T11:32:20;19.73;;;11.50;;
57191;SDS011;43052;52.588;13.396;2023-04-08T11:34:47;23.40;;;16.75;;
57191;SDS011;43052;52.588;13.396;2023-04-08T11:37:13;26.98;;;14.80;;
57191;SDS011;43052;52.588;13.396;2023-04-08T11:39:42;25.80;;;16.65;;
57191;SDS011;43052;52.588;13.396;2023-04-08T11:42:08;20.80;;;13.63;;
57191;SDS011;43052;52.588;13.396;2023-04-08T11:44:34;23.98;;;13.55;;
57191;SDS011;43052;52.588;13.396;2023-04-08T11:46:59;21.85;;;12.85;;
57191;SDS011;43052;52.588;13.396;2023-04-08T11:49:26;19.88;;;13.27;;
57191;SDS011;43052;52.588;13.396;2023-04-08T11:51:58;19.10;;;12.95;;
57191;SDS011;43052;52.588;13.396;2023-04-08T11:54:31;21.35;;;11.52;;
57191;SDS011;43052;52.588;13.396;2023-04-08T11:56:56;21.08;;;12.90;;
57191;SDS011;43052;52.588;13.396;2023-04-08T11:59:22;14.88;;;10.23;;
57191;SDS011;43052;52.588;13.396;2023-04-08T12:01:51;16.08;;;12.48;;
57191;SDS011;43052;52.588;13.396;2023-04-08T12:04:16;18.48;;;12.45;;
57191;SDS011;43052;52.588;13.396;2023-04-08T12:06:42;19.05;;;12.82;;
57191;SDS011;43052;52.588;13.396;2023-04-08T12:09:11;17.13;;;11.48;;
57191;SDS011;43052;52.588;13.396;2023-04-08T12:11:37;17.70;;;11.68;;
57191;SDS011;43052;52.588;13.396;2023-04-08T12:14:02;13.80;;;9.80;;
57191;SDS011;43052;52.588;13.396;2023-04-08T12:16:28;19.55;;;12.15;;
57191;SDS011;43052;52.588;13.396;2023-04-08T12:18:53;18.65;;;12.73;;
57191;SDS011;43052;52.588;13.396;2023-04-08T12:21:19;19.52;;;13.65;;
57191;SDS011;43052;52.588;13.396;2023-04-08T12:23:44;19.83;;;13.27;;
57191;SDS011;43052;52.588;13.396;2023-04-08T12:26:09;20.58;;;12.55;;
57191;SDS011;43052;52.588;13.396;2023-04-08T12:28:35;20.75;;;14.48;;
57191;SDS011;43052;52.588;13.396;2023-04-08T12:31:01;20.27;;;14.45;;
57191;SDS011;43052;52.588;13.396;2023-04-08T12:33:26;22.05;;;14.65;;
57191;SDS011;43052;52.588;13.396;2023-04-08T12:35:51;21.13;;;14.98;;
57191;SDS011;43052;52.588;13.396;2023-04-08T12:38:17;20.42;;;12.43;;
57191;SDS011;43052;52.588;13.396;2023-04-08T12:40:43;17.25;;;10.93;;
57191;SDS011;43052;52.588;13.396;2023-04-08T12:43:08;22.35;;;15.27;;
57191;SDS011;43052;52.588;13.396;2023-04-08T12:45:33;21.45;;;13.38;;
57191;SDS011;43052;52.588;13.396;2023-04-08T12:47:59;21.52;;;12.35;;
57191;SDS011;43052;52.588;13.396;2023-04-08T12:50:24;21.35;;;15.35;;
57191;SDS011;43052;52.588;13.396;2023-04-08T12:52:50;20.55;;;14.70;;
57191;SDS011;43052;52.588;13.396;2023-04-08T12:55:15;19.52;;;13.35;;
57191;SDS011;43052;52.588;13.396;2023-04-08T12:57:42;20.70;;;12.30;;
57191;SDS011;43052;52.588;13.396;2023-04-08T13:00:07;20.70;;;14.15;;
57191;SDS011;43052;52.588;13.396;2023-04-08T13:02:33;16.20;;;10.93;;
57191;SDS011;43052;52.588;13.396;2023-04-08T13:04:58;17.63;;;13.00;;
57191;SDS011;43052;52.588;13.396;2023-04-08T13:07:23;15.45;;;11.90;;
57191;SDS011;43052;52.588;13.396;2023-04-08T13:09:49;17.10;;;12.27;;
57191;SDS011;43052;52.588;13.396;2023-04-08T13:12:14;17.05;;;12.73;;
57191;SDS011;43052;52.588;13.396;2023-04-08T13:14:40;17.38;;;12.52;;
57191;SDS011;43052;52.588;13.396;2023-04-08T13:17:05;17.88;;;12.68;;
57191;SDS011;43052;52.588;13.396;2023-04-08T13:19:31;18.30;;;12.93;;
57191;SDS011;43052;52.588;13.396;2023-04-08T13:21:56;19.38;;;12.98;;
57191;SDS011;43052;52.588;13.396;2023-04-08T13:24:21;16.45;;;12.45;;
57191;SDS011;43052;52.588;13.396;2023-04-08T13:26:47;15.00;;;9.98;;
57191;SDS011;43052;52.588;13.396;2023-04-08T13:29:12;21.25;;;14.70;;
57191;SDS011;43052;52.588;13.396;2023-04-08T13:31:37;20.60;;;13.18;;
57191;SDS011;43052;52.588;13.396;2023-04-08T13:34:03;18.30;;;13.43;;
57191;SDS011;43052;52.588;13.396;2023-04-08T13:36:28;17.83;;;13.55;;
57191;SDS011;43052;52.588;13.396;2023-04-08T13:38:53;18.92;;;13.30;;
57191;SDS011;43052;52.588;13.396;2023-04-08T13:41:19;18.63;;;13.38;;
57191;SDS011;43052;52.588;13.396;2023-04-08T13:43:45;17.35;;;12.93;;
57191;SDS011;43052;52.588;13.396;2023-04-08T13:46:10;17.80;;;11.73;;
57191;SDS011;43052;52.588;13.396;2023-04-08T13:48:35;15.80;;;9.18;;
57191;SDS011;43052;52.588;13.396;2023-04-08T13:51:01;16.30;;;12.98;;
57191;SDS011;43052;52.588;13.396;2023-04-08T13:53:26;15.75;;;11.68;;
57191;SDS011;43052;52.588;13.396;2023-04-08T13:55:51;16.73;;;12.50;;
57191;SDS011;43052;52.588;13.396;2023-04-08T13:58:19;11.77;;;8.75;;
57191;SDS011;43052;52.588;13.396;2023-04-08T14:00:45;16.42;;;10.00;;
57191;SDS011;43052;52.588;13.396;2023-04-08T14:03:10;17.50;;;11.75;;
57191;SDS011;43052;52.588;13.396;2023-04-08T14:05:37;12.20;;;8.82;;
57191;SDS011;43052;52.588;13.396;2023-04-08T14:08:02;15.45;;;10.77;;
57191;SDS011;43052;52.588;13.396;2023-04-08T14:10:27;17.10;;;10.35;;
57191;SDS011;43052;52.588;13.396;2023-04-08T14:12:53;18.48;;;10.63;;
57191;SDS011;43052;52.588;13.396;2023-04-08T14:15:18;11.60;;;7.72;;
57191;SDS011;43052;52.588;13.396;2023-04-08T14:17:43;13.73;;;9.07;;
57191;SDS011;43052;52.588;13.396;2023-04-08T14:20:08;13.55;;;10.20;;
57191;SDS011;43052;52.588;13.396;2023-04-08T14:22:34;13.60;;;10.55;;
57191;SDS011;43052;52.588;13.396;2023-04-08T14:24:59;14.43;;;10.82;;
57191;SDS011;43052;52.588;13.396;2023-04-08T14:27:24;16.88;;;11.57;;